sensor_id;sensor_type;location;lat;lon;timestamp;P1;durP1;ratioP1;P2;durP2;ratioP2
21550;SDS011;10936;49.836;7.078;2023-03-16T06:02:21;15.40;;;10.03;;
21550;SDS011;10936;49.836;7.078;2023-03-16T06:04:47;15.90;;;8.37;;
21550;SDS011;10936;49.836;7.078;2023-03-16T06:07:12;14.20;;;8.17;;
21550;SDS011;10936;49.836;7.078;2023-03-16T06:09:38;14.20;;;8.10;;
21550;SDS011;10936;49.836;7.078;2023-03-16T06:12:04;12.83;;;6.70;;
21550;SDS011;10936;49.836;7.078;2023-03-16T06:14:29;15.53;;;7.77;;
21550;SDS011;10936;49.836;7.078;2023-03-16T06:16:55;10.83;;;7.77;;
21550;SDS011;10936;49.836;7.078;2023-03-16T06:19:20;12.60;;;7.30;;
21550;SDS011;10936;49.836;7.078;2023-03-16T06:21:46;10.47;;;7.33;;
21550;SDS011;10936;49.836;7.078;2023-03-16T06:24:11;10.97;;;6.10;;
21550;SDS011;10936;49.836;7.078;2023-03-16T06:26:37;10.50;;;6.97;;
21550;SDS011;10936;49.836;7.078;2023-03-16T06:29:03;14.90;;;7.93;;
21550;SDS011;10936;49.836;7.078;2023-03-16T06:31:29;12.90;;;6.97;;
21550;SDS011;10936;49.836;7.078;2023-03-16T06:33:55;13.27;;;7.70;;
21550;SDS011;10936;49.836;7.078;2023-03-16T06:36:21;11.03;;;7.87;;
21550;SDS011;10936;49.836;7.078;2023-03-16T06:38:46;10.37;;;6.60;;
21550;SDS011;10936;49.836;7.078;2023-03-16T06:41:12;9.47;;;6.57;;
21550;SDS011;10936;49.836;7.078;2023-03-16T06:43:38;14.43;;;8.00;;
21550;SDS011;10936;49.836;7.078;2023-03-16T06:46:03;7.23;;;5.20;;
21550;SDS011;10936;49.836;7.078;2023-03-16T06:48:29;7.17;;;4.17;;
21550;SDS011;10936;49.836;7.078;2023-03-16T06:50:55;5.77;;;4.00;;
21550;SDS011;10936;49.836;7.078;2023-03-16T06:53:20;5.07;;;3.37;;
21550;SDS011;10936;49.836;7.078;2023-03-16T06:55:46;8.70;;;3.23;;
21550;SDS011;10936;49.836;7.078;2023-03-16T06:58:12;4.10;;;3.07;;
21550;SDS011;10936;49.836;7.078;2023-03-16T07:00:38;4.33;;;2.80;;
21550;SDS011;10936;49.836;7.078;2023-03-16T07:03:03;6.57;;;2.80;;
21550;SDS011;10936;49.836;7.078;2023-03-16T07:05:29;3.87;;;3.03;;
21550;SDS011;10936;49.836;7.078;2023-03-16T07:07:55;4.27;;;2.27;;
21550;SDS011;10936;49.836;7.078;2023-03-16T07:10:21;5.97;;;3.07;;
21550;SDS011;10936;49.836;7.078;2023-03-16T07:12:48;4.70;;;2.90;;
21550;SDS011;10936;49.836;7.078;2023-03-16T07:15:14;5.83;;;2.70;;
21550;SDS011;10936;49.836;7.078;2023-03-16T07:17:40;6.33;;;2.73;;
21550;SDS011;10936;49.836;7.078;2023-03-16T07:20:06;5.50;;;2.80;;
21550;SDS011;10936;49.836;7.078;2023-03-16T07:22:34;3.57;;;2.40;;
21550;SDS011;10936;49.836;7.078;2023-03-16T07:25:00;5.60;;;2.53;;
21550;SDS011;10936;49.836;7.078;2023-03-16T07:27:26;4.50;;;2.70;;
21550;SDS011;10936;49.836;7.078;2023-03-16T07:29:53;4.67;;;2.60;;
21550;SDS011;10936;49.836;7.078;2023-03-16T07:32:19;9.10;;;3.10;;
21550;SDS011;10936;49.836;7.078;2023-03-16T07:34:45;4.07;;;2.30;;
21550;SDS011;10936;49.836;7.078;2023-03-16T07:37:11;7.03;;;2.40;;
21550;SDS011;10936;49.836;7.078;2023-03-16T07:39:37;3.93;;;2.00;;
21550;SDS011;10936;49.836;7.078;2023-03-16T07:42:04;5.47;;;2.13;;
21550;SDS011;10936;49.836;7.078;2023-03-16T07:44:30;5.30;;;2.00;;
21550;SDS011;10936;49.836;7.078;2023-03-16T07:46:56;3.97;;;2.40;;
21550;SDS011;10936;49.836;7.078;2023-03-16T07:49:21;5.83;;;2.57;;
21550;SDS011;10936;49.836;7.078;2023-03-16T07:51:48;5.37;;;3.17;;
21550;SDS011;10936;49.836;7.078;2023-03-16T07:54:13;5.30;;;2.37;;
21550;SDS011;10936;49.836;7.078;2023-03-16T07:56:39;4.77;;;2.53;;
21550;SDS011;10936;49.836;7.078;2023-03-16T07:59:06;3.53;;;2.50;;
21550;SDS011;10936;49.836;7.078;2023-03-16T08:01:32;6.10;;;2.40;;
21550;SDS011;10936;49.836;7.078;2023-03-16T08:03:58;4.10;;;2.30;;
21550;SDS011;10936;49.836;7.078;2023-03-16T08:06:25;6.80;;;2.60;;
21550;SDS011;10936;49.836;7.078;2023-03-16T08:08:51;7.60;;;3.20;;
21550;SDS011;10936;49.836;7.078;2023-03-16T08:11:17;10.50;;;3.47;;
21550;SDS011;10936;49.836;7.078;2023-03-16T08:13:50;6.33;;;2.77;;
21550;SDS011;10936;49.836;7.078;2023-03-16T08:16:20;5.73;;;2.90;;
21550;SDS011;10936;49.836;7.078;2023-03-16T08:18:50;5.67;;;2.03;;
21550;SDS011;10936;49.836;7.078;2023-03-16T08:21:16;5.73;;;1.90;;
21550;SDS011;10936;49.836;7.078;2023-03-16T08:23:42;4.27;;;2.30;;
21550;SDS011;10936;49.836;7.078;2023-03-16T08:26:13;4.37;;;1.70;;
21550;SDS011;10936;49.836;7.078;2023-03-16T08:28:41;6.93;;;1.70;;
21550;SDS011;10936;49.836;7.078;2023-03-16T08:31:07;4.50;;;2.20;;
21550;SDS011;10936;49.836;7.078;2023-03-16T08:33:32;4.30;;;2.00;;
21550;SDS011;10936;49.836;7.078;2023-03-16T08:36:00;3.07;;;1.60;;
21550;SDS011;10936;49.836;7.078;2023-03-16T08:38:26;3.33;;;1.47;;
21550;SDS011;10936;49.836;7.078;2023-03-16T08:40:51;2.80;;;1.47;;
21550;SDS011;10936;49.836;7.078;2023-03-16T08:43:17;4.73;;;2.10;;
21550;SDS011;10936;49.836;7.078;2023-03-16T08:45:43;7.93;;;1.57;;
21550;SDS011;10936;49.836;7.078;2023-03-16T08:48:10;3.13;;;1.57;;
21550;SDS011;10936;49.836;7.078;2023-03-16T08:50:42;6.00;;;1.80;;
21550;SDS011;10936;49.836;7.078;2023-03-16T08:53:08;15.07;;;2.60;;
21550;SDS011;10936;49.836;7.078;2023-03-16T08:55:34;5.17;;;1.60;;
21550;SDS011;10936;49.836;7.078;2023-03-16T08:58:03;5.63;;;1.30;;
21550;SDS011;10936;49.836;7.078;2023-03-16T09:00:29;2.10;;;1.27;;
21550;SDS011;10936;49.836;7.078;2023-03-16T09:02:54;4.00;;;2.03;;
21550;SDS011;10936;49.836;7.078;2023-03-16T09:05:21;2.57;;;1.40;;
21550;SDS011;10936;49.836;7.078;2023-03-16T09:07:47;2.87;;;1.20;;
21550;SDS011;10936;49.836;7.078;2023-03-16T09:10:13;2.33;;;1.33;;
21550;SDS011;10936;49.836;7.078;2023-03-16T09:12:40;4.50;;;1.33;;
21550;SDS011;10936;49.836;7.078;2023-03-16T09:15:07;7.53;;;1.70;;
21550;SDS011;10936;49.836;7.078;2023-03-16T09:17:36;3.57;;;1.67;;
21550;SDS011;10936;49.836;7.078;2023-03-16T09:20:03;3.27;;;1.40;;
21550;SDS011;10936;49.836;7.078;2023-03-16T09:22:33;2.20;;;1.63;;
21550;SDS011;10936;49.836;7.078;2023-03-16T09:24:59;2.40;;;1.67;;
21550;SDS011;10936;49.836;7.078;2023-03-16T09:27:25;4.47;;;2.07;;
21550;SDS011;10936;49.836;7.078;2023-03-16T09:29:50;3.13;;;1.60;;
21550;SDS011;10936;49.836;7.078;2023-03-16T09:32:19;5.73;;;1.67;;
21550;SDS011;10936;49.836;7.078;2023-03-16T09:34:45;5.63;;;1.50;;
21550;SDS011;10936;49.836;7.078;2023-03-16T09:37:11;5.40;;;1.60;;
21550;SDS011;10936;49.836;7.078;2023-03-16T09:39:36;1.80;;;1.37;;
21550;SDS011;10936;49.836;7.078;2023-03-16T09:44:54;4.93;;;1.40;;
21550;SDS011;10936;49.836;7.078;2023-03-16T09:47:27;2.73;;;1.20;;
21550;SDS011;10936;49.836;7.078;2023-03-16T09:49:55;3.83;;;1.50;;
21550;SDS011;10936;49.836;7.078;2023-03-16T09:52:30;6.20;;;1.40;;
21550;SDS011;10936;49.836;7.078;2023-03-16T09:55:50;2.57;;;1.50;;
21550;SDS011;10936;49.836;7.078;2023-03-16T09:57:59;4.10;;;1.50;;
21550;SDS011;10936;49.836;7.078;2023-03-16T10:05:35;4.67;;;2.27;;
21550;SDS011;10936;49.836;7.078;2023-03-16T10:08:11;2.53;;;1.50;;
21550;SDS011;10936;49.836;7.078;2023-03-16T10:19:01;2.27;;;1.57;;
21550;SDS011;10936;49.836;7.078;2023-03-16T10:21:44;4.83;;;1.83;;
21550;SDS011;10936;49.836;7.078;2023-03-16T10:24:25;2.67;;;1.60;;
21550;SDS011;10936;49.836;7.078;2023-03-16T10:27:03;3.17;;;1.70;;
21550;SDS011;10936;49.836;7.078;2023-03-16T10:29:36;2.43;;;1.73;;
21550;SDS011;10936;49.836;7.078;2023-03-16T10:32:13;3.90;;;1.83;;
21550;SDS011;10936;49.836;7.078;2023-03-16T10:34:42;4.47;;;2.80;;
21550;SDS011;10936;49.836;7.078;2023-03-16T10:37:13;3.40;;;1.80;;
21550;SDS011;10936;49.836;7.078;2023-03-16T10:39:39;4.77;;;2.40;;
21550;SDS011;10936;49.836;7.078;2023-03-16T10:42:11;3.97;;;2.10;;
21550;SDS011;10936;49.836;7.078;2023-03-16T10:44:42;6.47;;;1.90;;
21550;SDS011;10936;49.836;7.078;2023-03-16T10:47:20;2.10;;;1.70;;
21550;SDS011;10936;49.836;7.078;2023-03-16T10:49:48;6.50;;;1.87;;
21550;SDS011;10936;49.836;7.078;2023-03-16T10:52:36;2.60;;;1.60;;
21550;SDS011;10936;49.836;7.078;2023-03-16T10:55:08;3.60;;;1.70;;
21550;SDS011;10936;49.836;7.078;2023-03-16T10:57:40;4.63;;;1.87;;
21550;SDS011;10936;49.836;7.078;2023-03-16T11:00:11;3.80;;;1.73;;
21550;SDS011;10936;49.836;7.078;2023-03-16T11:02:44;5.47;;;1.70;;
21550;SDS011;10936;49.836;7.078;2023-03-16T11:05:10;3.80;;;2.37;;
21550;SDS011;10936;49.836;7.078;2023-03-16T11:07:37;2.40;;;1.73;;
21550;SDS011;10936;49.836;7.078;2023-03-16T11:10:11;3.53;;;2.10;;
21550;SDS011;10936;49.836;7.078;2023-03-16T11:12:49;6.17;;;2.10;;
21550;SDS011;10936;49.836;7.078;2023-03-16T11:15:15;4.83;;;2.17;;
21550;SDS011;10936;49.836;7.078;2023-03-16T11:17:48;2.93;;;1.90;;
21550;SDS011;10936;49.836;7.078;2023-03-16T11:20:26;2.67;;;2.00;;
21550;SDS011;10936;49.836;7.078;2023-03-16T11:22:54;4.50;;;2.27;;
21550;SDS011;10936;49.836;7.078;2023-03-16T11:25:39;6.33;;;2.97;;
21550;SDS011;10936;49.836;7.078;2023-03-16T11:28:33;2.03;;;1.37;;
21550;SDS011;10936;49.836;7.078;2023-03-16T11:31:01;1.57;;;1.20;;
21550;SDS011;10936;49.836;7.078;2023-03-16T11:33:34;3.77;;;1.70;;
21550;SDS011;10936;49.836;7.078;2023-03-16T11:36:02;5.00;;;1.50;;
21550;SDS011;10936;49.836;7.078;2023-03-16T11:49:49;3.30;;;1.60;;
21550;SDS011;10936;49.836;7.078;2023-03-16T11:52:42;7.20;;;1.70;;
21550;SDS011;10936;49.836;7.078;2023-03-16T12:04:05;5.87;;;1.40;;
21550;SDS011;10936;49.836;7.078;2023-03-16T12:06:59;3.53;;;1.30;;
21550;SDS011;10936;49.836;7.078;2023-03-16T12:09:41;1.83;;;1.27;;
21550;SDS011;10936;49.836;7.078;2023-03-16T12:17:38;3.73;;;1.50;;
21550;SDS011;10936;49.836;7.078;2023-03-16T12:20:13;2.87;;;1.40;;
21550;SDS011;10936;49.836;7.078;2023-03-16T12:22:51;1.77;;;1.27;;
21550;SDS011;10936;49.836;7.078;2023-03-16T12:25:30;2.07;;;1.40;;
21550;SDS011;10936;49.836;7.078;2023-03-16T12:28:01;3.30;;;1.40;;
21550;SDS011;10936;49.836;7.078;2023-03-16T12:30:47;3.77;;;1.60;;
21550;SDS011;10936;49.836;7.078;2023-03-16T12:38:43;2.30;;;1.40;;
21550;SDS011;10936;49.836;7.078;2023-03-16T12:45:00;2.77;;;1.60;;
21550;SDS011;10936;49.836;7.078;2023-03-16T12:50:11;2.70;;;1.63;;
21550;SDS011;10936;49.836;7.078;2023-03-16T12:52:41;3.67;;;2.03;;
21550;SDS011;10936;49.836;7.078;2023-03-16T12:57:36;4.03;;;2.30;;
21550;SDS011;10936;49.836;7.078;2023-03-16T13:00:05;4.80;;;1.87;;
21550;SDS011;10936;49.836;7.078;2023-03-16T13:02:34;5.10;;;1.70;;
21550;SDS011;10936;49.836;7.078;2023-03-16T13:05:06;2.93;;;1.77;;
21550;SDS011;10936;49.836;7.078;2023-03-16T13:07:32;3.97;;;1.80;;
21550;SDS011;10936;49.836;7.078;2023-03-16T13:10:04;5.17;;;2.37;;
21550;SDS011;10936;49.836;7.078;2023-03-16T13:12:34;3.77;;;1.50;;
21550;SDS011;10936;49.836;7.078;2023-03-16T13:15:14;3.27;;;1.87;;
21550;SDS011;10936;49.836;7.078;2023-03-16T13:17:43;3.07;;;1.80;;
21550;SDS011;10936;49.836;7.078;2023-03-16T13:20:24;3.77;;;1.73;;
21550;SDS011;10936;49.836;7.078;2023-03-16T13:23:08;2.80;;;1.40;;
21550;SDS011;10936;49.836;7.078;2023-03-16T13:26:17;4.87;;;1.70;;
21550;SDS011;10936;49.836;7.078;2023-03-16T13:28:51;2.83;;;1.73;;
21550;SDS011;10936;49.836;7.078;2023-03-16T13:31:34;3.50;;;1.70;;
21550;SDS011;10936;49.836;7.078;2023-03-16T13:34:01;3.83;;;1.73;;
21550;SDS011;10936;49.836;7.078;2023-03-16T13:36:29;2.20;;;1.53;;
21550;SDS011;10936;49.836;7.078;2023-03-16T13:39:04;5.00;;;1.40;;
21550;SDS011;10936;49.836;7.078;2023-03-16T13:41:53;3.37;;;1.63;;
21550;SDS011;10936;49.836;7.078;2023-03-16T13:44:38;2.83;;;1.37;;
21550;SDS011;10936;49.836;7.078;2023-03-16T13:47:05;2.73;;;1.13;;
21550;SDS011;10936;49.836;7.078;2023-03-16T13:49:31;3.20;;;1.50;;
21550;SDS011;10936;49.836;7.078;2023-03-16T13:51:57;4.33;;;1.60;;
21550;SDS011;10936;49.836;7.078;2023-03-16T13:56:51;2.50;;;1.33;;
21550;SDS011;10936;49.836;7.078;2023-03-16T13:59:19;4.13;;;1.00;;
21550;SDS011;10936;49.836;7.078;2023-03-16T14:01:46;2.47;;;1.30;;
21550;SDS011;10936;49.836;7.078;2023-03-16T14:04:13;4.47;;;1.30;;
21550;SDS011;10936;49.836;7.078;2023-03-16T14:06:50;8.73;;;3.40;;
21550;SDS011;10936;49.836;7.078;2023-03-16T14:09:21;7.27;;;1.30;;
21550;SDS011;10936;49.836;7.078;2023-03-16T14:11:51;1.77;;;1.07;;
21550;SDS011;10936;49.836;7.078;2023-03-16T14:14:24;2.23;;;1.30;;
21550;SDS011;10936;49.836;7.078;2023-03-16T14:17:07;4.90;;;1.20;;
21550;SDS011;10936;49.836;7.078;2023-03-16T14:19:46;5.90;;;1.40;;
21550;SDS011;10936;49.836;7.078;2023-03-16T14:22:18;3.80;;;1.20;;
21550;SDS011;10936;49.836;7.078;2023-03-16T14:24:53;2.07;;;1.03;;
21550;SDS011;10936;49.836;7.078;2023-03-16T14:27:42;1.60;;;1.20;;
21550;SDS011;10936;49.836;7.078;2023-03-16T14:33:04;3.60;;;1.77;;
21550;SDS011;10936;49.836;7.078;2023-03-16T14:35:39;1.50;;;1.10;;
21550;SDS011;10936;49.836;7.078;2023-03-16T14:41:03;4.77;;;2.47;;
21550;SDS011;10936;49.836;7.078;2023-03-16T14:43:36;3.13;;;1.30;;
21550;SDS011;10936;49.836;7.078;2023-03-16T14:46:10;1.20;;;1.10;;
21550;SDS011;10936;49.836;7.078;2023-03-16T14:48:43;1.97;;;1.10;;
21550;SDS011;10936;49.836;7.078;2023-03-16T14:51:11;3.53;;;1.30;;
21550;SDS011;10936;49.836;7.078;2023-03-16T14:53:38;3.53;;;1.60;;
21550;SDS011;10936;49.836;7.078;2023-03-16T14:56:08;2.93;;;1.60;;
21550;SDS011;10936;49.836;7.078;2023-03-16T14:58:36;2.57;;;1.40;;
21550;SDS011;10936;49.836;7.078;2023-03-16T15:01:01;1.83;;;1.23;;
21550;SDS011;10936;49.836;7.078;2023-03-16T15:03:29;1.70;;;1.00;;
21550;SDS011;10936;49.836;7.078;2023-03-16T15:06:00;2.40;;;1.07;;
21550;SDS011;10936;49.836;7.078;2023-03-16T15:08:26;2.13;;;1.10;;
21550;SDS011;10936;49.836;7.078;2023-03-16T15:11:02;2.83;;;1.20;;
21550;SDS011;10936;49.836;7.078;2023-03-16T15:13:30;4.40;;;1.50;;
21550;SDS011;10936;49.836;7.078;2023-03-16T15:16:08;1.93;;;1.40;;
21550;SDS011;10936;49.836;7.078;2023-03-16T15:18:35;2.53;;;1.50;;
21550;SDS011;10936;49.836;7.078;2023-03-16T15:21:03;1.20;;;1.00;;
21550;SDS011;10936;49.836;7.078;2023-03-16T15:23:36;1.90;;;1.10;;
21550;SDS011;10936;49.836;7.078;2023-03-16T15:26:02;2.07;;;1.30;;
21550;SDS011;10936;49.836;7.078;2023-03-16T15:28:29;4.37;;;1.50;;
21550;SDS011;10936;49.836;7.078;2023-03-16T15:30:56;1.43;;;1.10;;
21550;SDS011;10936;49.836;7.078;2023-03-16T15:33:23;1.37;;;1.27;;
21550;SDS011;10936;49.836;7.078;2023-03-16T15:35:51;3.03;;;1.20;;
21550;SDS011;10936;49.836;7.078;2023-03-16T15:40:50;1.77;;;1.03;;
21550;SDS011;10936;49.836;7.078;2023-03-16T15:43:18;2.63;;;1.30;;
21550;SDS011;10936;49.836;7.078;2023-03-16T15:45:45;2.70;;;1.60;;
21550;SDS011;10936;49.836;7.078;2023-03-16T15:48:12;1.60;;;1.00;;
21550;SDS011;10936;49.836;7.078;2023-03-16T15:50:39;4.07;;;1.20;;
21550;SDS011;10936;49.836;7.078;2023-03-16T15:53:17;3.70;;;1.27;;
21550;SDS011;10936;49.836;7.078;2023-03-16T15:56:05;2.00;;;1.07;;
21550;SDS011;10936;49.836;7.078;2023-03-16T15:58:35;2.90;;;1.10;;
21550;SDS011;10936;49.836;7.078;2023-03-16T16:01:04;2.20;;;1.37;;
21550;SDS011;10936;49.836;7.078;2023-03-16T16:03:31;2.67;;;1.17;;
21550;SDS011;10936;49.836;7.078;2023-03-16T16:05:57;3.33;;;1.13;;
21550;SDS011;10936;49.836;7.078;2023-03-16T16:08:23;2.63;;;1.20;;
21550;SDS011;10936;49.836;7.078;2023-03-16T16:10:49;2.80;;;1.00;;
21550;SDS011;10936;49.836;7.078;2023-03-16T16:13:26;2.87;;;1.10;;
21550;SDS011;10936;49.836;7.078;2023-03-16T16:15:55;2.43;;;1.27;;
21550;SDS011;10936;49.836;7.078;2023-03-16T16:18:30;3.63;;;1.20;;
21550;SDS011;10936;49.836;7.078;2023-03-16T16:21:01;1.90;;;1.40;;
21550;SDS011;10936;49.836;7.078;2023-03-16T16:23:28;1.47;;;1.13;;
21550;SDS011;10936;49.836;7.078;2023-03-16T16:25:56;2.47;;;1.40;;
21550;SDS011;10936;49.836;7.078;2023-03-16T16:28:25;1.47;;;1.17;;
21550;SDS011;10936;49.836;7.078;2023-03-16T16:30:53;2.60;;;1.00;;
21550;SDS011;10936;49.836;7.078;2023-03-16T16:33:20;4.43;;;1.30;;
21550;SDS011;10936;49.836;7.078;2023-03-16T16:35:50;3.17;;;1.50;;
21550;SDS011;10936;49.836;7.078;2023-03-16T16:38:16;1.50;;;1.10;;
21550;SDS011;10936;49.836;7.078;2023-03-16T16:40:42;1.40;;;1.10;;
21550;SDS011;10936;49.836;7.078;2023-03-16T16:43:14;2.10;;;1.10;;
21550;SDS011;10936;49.836;7.078;2023-03-16T16:45:53;2.83;;;1.27;;
21550;SDS011;10936;49.836;7.078;2023-03-16T16:48:25;1.60;;;1.10;;
21550;SDS011;10936;49.836;7.078;2023-03-16T16:51:04;1.17;;;0.90;;
21550;SDS011;10936;49.836;7.078;2023-03-16T16:53:33;1.67;;;1.23;;
21550;SDS011;10936;49.836;7.078;2023-03-16T16:55:59;1.40;;;0.90;;
21550;SDS011;10936;49.836;7.078;2023-03-16T16:58:25;3.67;;;1.20;;
21550;SDS011;10936;49.836;7.078;2023-03-16T17:00:55;2.63;;;1.20;;
21550;SDS011;10936;49.836;7.078;2023-03-16T17:03:28;1.30;;;1.10;;
21550;SDS011;10936;49.836;7.078;2023-03-16T17:05:57;1.10;;;1.00;;
21550;SDS011;10936;49.836;7.078;2023-03-16T17:08:23;3.77;;;1.20;;
21550;SDS011;10936;49.836;7.078;2023-03-16T17:10:50;1.77;;;1.00;;
21550;SDS011;10936;49.836;7.078;2023-03-16T17:15:51;4.50;;;0.97;;
21550;SDS011;10936;49.836;7.078;2023-03-16T17:18:18;2.17;;;1.40;;
21550;SDS011;10936;49.836;7.078;2023-03-16T17:20:44;2.90;;;1.30;;
21550;SDS011;10936;49.836;7.078;2023-03-16T17:23:18;2.20;;;1.10;;
21550;SDS011;10936;49.836;7.078;2023-03-16T17:25:51;2.83;;;1.20;;
21550;SDS011;10936;49.836;7.078;2023-03-16T17:28:19;1.30;;;0.80;;
21550;SDS011;10936;49.836;7.078;2023-03-16T17:30:45;0.90;;;0.70;;
21550;SDS011;10936;49.836;7.078;2023-03-16T17:33:12;1.40;;;1.10;;
21550;SDS011;10936;49.836;7.078;2023-03-16T17:35:40;2.20;;;1.00;;
21550;SDS011;10936;49.836;7.078;2023-03-16T17:38:26;3.40;;;1.20;;
21550;SDS011;10936;49.836;7.078;2023-03-16T17:40:52;2.03;;;1.30;;
21550;SDS011;10936;49.836;7.078;2023-03-16T17:43:20;1.87;;;1.00;;
21550;SDS011;10936;49.836;7.078;2023-03-16T17:45:47;1.93;;;1.10;;
21550;SDS011;10936;49.836;7.078;2023-03-16T17:48:19;1.40;;;1.00;;
21550;SDS011;10936;49.836;7.078;2023-03-16T17:50:48;3.27;;;1.33;;
21550;SDS011;10936;49.836;7.078;2023-03-16T17:53:15;2.07;;;1.20;;
21550;SDS011;10936;49.836;7.078;2023-03-16T17:55:43;5.63;;;1.93;;
21550;SDS011;10936;49.836;7.078;2023-03-16T17:58:31;5.70;;;2.07;;
21550;SDS011;10936;49.836;7.078;2023-03-16T18:00:56;35.73;;;8.20;;
21550;SDS011;10936;49.836;7.078;2023-03-16T18:03:23;15.67;;;4.30;;
21550;SDS011;10936;49.836;7.078;2023-03-16T18:05:50;7.30;;;2.80;;
21550;SDS011;10936;49.836;7.078;2023-03-16T18:08:22;1.93;;;1.40;;
21550;SDS011;10936;49.836;7.078;2023-03-16T18:10:52;3.13;;;1.90;;
21550;SDS011;10936;49.836;7.078;2023-03-16T18:13:30;9.77;;;4.37;;
21550;SDS011;10936;49.836;7.078;2023-03-16T18:15:58;7.03;;;2.77;;
21550;SDS011;10936;49.836;7.078;2023-03-16T18:18:26;14.70;;;5.43;;
21550;SDS011;10936;49.836;7.078;2023-03-16T18:20:56;21.73;;;8.93;;
21550;SDS011;10936;49.836;7.078;2023-03-16T18:23:33;9.53;;;3.57;;
21550;SDS011;10936;49.836;7.078;2023-03-16T18:25:59;6.73;;;2.43;;
21550;SDS011;10936;49.836;7.078;2023-03-16T18:28:27;3.60;;;2.27;;
21550;SDS011;10936;49.836;7.078;2023-03-16T18:30:54;6.20;;;2.37;;
21550;SDS011;10936;49.836;7.078;2023-03-16T18:33:22;6.97;;;2.77;;
21550;SDS011;10936;49.836;7.078;2023-03-16T18:35:55;4.53;;;3.10;;
21550;SDS011;10936;49.836;7.078;2023-03-16T18:38:25;2.60;;;1.67;;
21550;SDS011;10936;49.836;7.078;2023-03-16T18:40:54;4.23;;;1.93;;
21550;SDS011;10936;49.836;7.078;2023-03-16T18:43:21;4.83;;;2.13;;
21550;SDS011;10936;49.836;7.078;2023-03-16T18:45:47;6.33;;;2.67;;
21550;SDS011;10936;49.836;7.078;2023-03-16T18:48:29;3.97;;;1.80;;
21550;SDS011;10936;49.836;7.078;2023-03-16T18:50:57;10.00;;;3.63;;
21550;SDS011;10936;49.836;7.078;2023-03-16T18:53:23;5.63;;;2.20;;
21550;SDS011;10936;49.836;7.078;2023-03-16T18:55:51;4.23;;;2.00;;
21550;SDS011;10936;49.836;7.078;2023-03-16T18:58:19;7.17;;;2.40;;
21550;SDS011;10936;49.836;7.078;2023-03-16T19:00:54;4.20;;;2.07;;
21550;SDS011;10936;49.836;7.078;2023-03-16T19:03:25;12.70;;;3.50;;
21550;SDS011;10936;49.836;7.078;2023-03-16T19:05:56;6.17;;;2.93;;
21550;SDS011;10936;49.836;7.078;2023-03-16T19:08:24;6.63;;;3.70;;
21550;SDS011;10936;49.836;7.078;2023-03-16T19:10:53;4.47;;;3.50;;
21550;SDS011;10936;49.836;7.078;2023-03-16T19:13:21;8.93;;;3.60;;
21550;SDS011;10936;49.836;7.078;2023-03-16T19:15:50;9.90;;;4.27;;
21550;SDS011;10936;49.836;7.078;2023-03-16T19:18:17;5.13;;;2.90;;
21550;SDS011;10936;49.836;7.078;2023-03-16T19:20:44;8.87;;;3.33;;
21550;SDS011;10936;49.836;7.078;2023-03-16T19:25:41;6.37;;;2.77;;
21550;SDS011;10936;49.836;7.078;2023-03-16T19:28:11;6.53;;;2.90;;
21550;SDS011;10936;49.836;7.078;2023-03-16T19:30:46;11.80;;;5.60;;
21550;SDS011;10936;49.836;7.078;2023-03-16T19:33:22;16.13;;;6.07;;
21550;SDS011;10936;49.836;7.078;2023-03-16T19:35:53;11.77;;;5.13;;
21550;SDS011;10936;49.836;7.078;2023-03-16T19:38:20;14.50;;;6.00;;
21550;SDS011;10936;49.836;7.078;2023-03-16T19:40:57;12.40;;;6.53;;
21550;SDS011;10936;49.836;7.078;2023-03-16T19:43:23;6.13;;;3.80;;
21550;SDS011;10936;49.836;7.078;2023-03-16T19:45:50;21.17;;;9.30;;
21550;SDS011;10936;49.836;7.078;2023-03-16T19:48:37;37.13;;;11.40;;
21550;SDS011;10936;49.836;7.078;2023-03-16T19:51:01;19.63;;;7.80;;
21550;SDS011;10936;49.836;7.078;2023-03-16T19:53:29;15.23;;;7.23;;
21550;SDS011;10936;49.836;7.078;2023-03-16T19:55:54;8.00;;;4.20;;
21550;SDS011;10936;49.836;7.078;2023-03-16T20:00:52;9.47;;;5.20;;
21550;SDS011;10936;49.836;7.078;2023-03-16T20:03:17;14.03;;;6.97;;
21550;SDS011;10936;49.836;7.078;2023-03-16T20:05:43;11.60;;;7.13;;
21550;SDS011;10936;49.836;7.078;2023-03-16T20:08:27;15.20;;;7.63;;
21550;SDS011;10936;49.836;7.078;2023-03-16T20:11:03;6.03;;;2.73;;
21550;SDS011;10936;49.836;7.078;2023-03-16T20:13:31;10.10;;;3.27;;
21550;SDS011;10936;49.836;7.078;2023-03-16T20:15:58;2.80;;;2.17;;
21550;SDS011;10936;49.836;7.078;2023-03-16T20:18:24;18.63;;;10.50;;
21550;SDS011;10936;49.836;7.078;2023-03-16T20:20:52;15.90;;;7.90;;
21550;SDS011;10936;49.836;7.078;2023-03-16T20:23:19;10.73;;;6.00;;
21550;SDS011;10936;49.836;7.078;2023-03-16T20:25:47;7.40;;;4.57;;
21550;SDS011;10936;49.836;7.078;2023-03-16T20:28:20;6.00;;;4.00;;
21550;SDS011;10936;49.836;7.078;2023-03-16T20:30:48;5.60;;;3.30;;
21550;SDS011;10936;49.836;7.078;2023-03-16T20:33:19;8.83;;;3.63;;
21550;SDS011;10936;49.836;7.078;2023-03-16T20:35:47;12.40;;;6.47;;
21550;SDS011;10936;49.836;7.078;2023-03-16T20:38:19;21.97;;;10.53;;
21550;SDS011;10936;49.836;7.078;2023-03-16T20:40:46;32.83;;;11.77;;
21550;SDS011;10936;49.836;7.078;2023-03-16T20:43:24;37.20;;;13.10;;
21550;SDS011;10936;49.836;7.078;2023-03-16T20:45:52;24.17;;;8.40;;
21550;SDS011;10936;49.836;7.078;2023-03-16T20:48:19;20.80;;;11.47;;
21550;SDS011;10936;49.836;7.078;2023-03-16T20:50:45;18.07;;;8.00;;
21550;SDS011;10936;49.836;7.078;2023-03-16T20:53:12;13.87;;;5.77;;
21550;SDS011;10936;49.836;7.078;2023-03-16T20:55:38;43.00;;;20.33;;
21550;SDS011;10936;49.836;7.078;2023-03-16T20:58:10;43.13;;;18.17;;
21550;SDS011;10936;49.836;7.078;2023-03-16T21:00:45;19.77;;;10.07;;
21550;SDS011;10936;49.836;7.078;2023-03-16T21:03:15;14.10;;;6.57;;
21550;SDS011;10936;49.836;7.078;2023-03-16T21:05:43;21.97;;;12.43;;
21550;SDS011;10936;49.836;7.078;2023-03-16T21:08:10;16.97;;;9.73;;
21550;SDS011;10936;49.836;7.078;2023-03-16T21:10:38;27.87;;;15.30;;
21550;SDS011;10936;49.836;7.078;2023-03-16T21:13:04;22.90;;;12.87;;
21550;SDS011;10936;49.836;7.078;2023-03-16T21:15:31;20.70;;;11.30;;
21550;SDS011;10936;49.836;7.078;2023-03-16T21:17:58;18.60;;;10.70;;
21550;SDS011;10936;49.836;7.078;2023-03-16T21:20:27;10.20;;;6.33;;
21550;SDS011;10936;49.836;7.078;2023-03-16T21:22:57;4.10;;;2.70;;
21550;SDS011;10936;49.836;7.078;2023-03-16T21:25:30;5.27;;;3.40;;
21550;SDS011;10936;49.836;7.078;2023-03-16T21:27:59;7.27;;;3.73;;
21550;SDS011;10936;49.836;7.078;2023-03-16T21:30:37;30.97;;;13.80;;
21550;SDS011;10936;49.836;7.078;2023-03-16T21:35:54;17.10;;;9.03;;
21550;SDS011;10936;49.836;7.078;2023-03-16T21:38:20;29.30;;;14.97;;
21550;SDS011;10936;49.836;7.078;2023-03-16T21:40:49;28.10;;;14.60;;
21550;SDS011;10936;49.836;7.078;2023-03-16T21:43:15;23.70;;;12.13;;
21550;SDS011;10936;49.836;7.078;2023-03-16T21:45:41;20.33;;;10.07;;
21550;SDS011;10936;49.836;7.078;2023-03-16T21:48:15;25.37;;;12.27;;
21550;SDS011;10936;49.836;7.078;2023-03-16T21:50:49;21.23;;;9.90;;
21550;SDS011;10936;49.836;7.078;2023-03-16T21:53:26;17.93;;;9.43;;
21550;SDS011;10936;49.836;7.078;2023-03-16T21:55:54;18.67;;;9.23;;
21550;SDS011;10936;49.836;7.078;2023-03-16T21:58:21;17.90;;;8.30;;
21550;SDS011;10936;49.836;7.078;2023-03-16T22:00:48;16.23;;;7.47;;
21550;SDS011;10936;49.836;7.078;2023-03-16T22:05:52;9.57;;;5.37;;
21550;SDS011;10936;49.836;7.078;2023-03-16T22:08:20;11.07;;;5.97;;
21550;SDS011;10936;49.836;7.078;2023-03-16T22:10:50;15.10;;;7.83;;
21550;SDS011;10936;49.836;7.078;2023-03-16T22:13:16;11.13;;;6.43;;
21550;SDS011;10936;49.836;7.078;2023-03-16T22:15:43;15.00;;;6.30;;
21550;SDS011;10936;49.836;7.078;2023-03-16T22:20:45;20.13;;;9.40;;
21550;SDS011;10936;49.836;7.078;2023-03-16T22:23:21;11.90;;;5.60;;